Time;durP1;ratioP1;P1;durP2;ratioP2;P2;SDS_P1;SDS_P2;PMS_P1;PMS_P2;Temp;Humidity;BMP_temperature;BMP_pressure;BME280_temperature;BME280_humidity;BME280_pressure;Samples;Min_cycle;Max_cycle;Signal;HPM_P1;HPM_P2
2022/06/08 00:00:54;;;;;;;1.30;1.17;;;18.00;71.70;;;;;;5083881;28;20084;-65
2022/06/08 00:03:37;;;;;;;2.83;1.80;;;18.00;71.70;;;;;;5087964;28;20019;-64
2022/06/08 00:06:04;;;;;;;1.90;1.52;;;18.00;71.70;;;;;;5080031;28;20082;-66
2022/06/08 00:08:29;;;;;;;1.55;1.33;;;17.90;71.80;;;;;;5091482;28;20035;-66
2022/06/08 00:10:55;;;;;;;1.73;1.52;;;17.90;71.90;;;;;;5092790;28;20033;-66
2022/06/08 00:13:21;;;;;;;1.85;1.40;;;17.80;71.90;;;;;;5078340;28;20027;-66
2022/06/08 00:15:47;;;;;;;2.30;1.67;;;17.80;72.00;;;;;;5082729;28;20063;-65
2022/06/08 00:18:13;;;;;;;3.47;1.40;;;17.70;72.00;;;;;;5082295;28;20091;-65
2022/06/08 00:20:39;;;;;;;1.92;1.58;;;17.70;72.00;;;;;;5083518;28;20422;-64
2022/06/08 00:23:06;;;;;;;1.45;1.35;;;17.70;72.00;;;;;;5088280;28;20020;-65
2022/06/08 00:25:32;;;;;;;1.85;1.48;;;17.60;72.10;;;;;;5086620;28;20039;-65
2022/06/08 00:27:58;;;;;;;2.75;1.60;;;17.60;72.20;;;;;;5113442;27;20025;-64
2022/06/08 00:30:24;;;;;;;3.15;1.55;;;17.60;72.20;;;;;;5083596;28;20278;-65
2022/06/08 00:32:49;;;;;;;1.95;1.80;;;17.50;72.20;;;;;;5088972;28;20573;-66
2022/06/08 00:35:15;;;;;;;2.15;1.60;;;17.50;72.20;;;;;;5088463;28;20028;-66
2022/06/08 00:37:41;;;;;;;2.10;1.75;;;17.50;72.30;;;;;;5094235;28;20088;-64
2022/06/08 00:40:10;;;;;;;1.52;1.42;;;17.50;72.30;;;;;;5080023;28;20483;-66
2022/06/08 00:42:36;;;;;;;2.60;1.92;;;17.40;72.40;;;;;;5076134;28;20027;-65
2022/06/08 00:45:07;;;;;;;3.10;1.77;;;17.40;72.60;;;;;;5093286;28;20027;-63
2022/06/08 00:47:42;;;;;;;3.88;1.98;;;17.40;72.70;;;;;;5099039;28;20482;-64
2022/06/08 00:50:15;;;;;;;1.33;1.20;;;17.50;72.80;;;;;;5080567;28;20033;-65
2022/06/08 00:52:43;;;;;;;2.33;1.75;;;17.50;72.90;;;;;;5077685;28;20471;-65
2022/06/08 00:55:11;;;;;;;4.88;2.15;;;17.40;73.00;;;;;;5084443;28;20483;-65
2022/06/08 00:57:45;;;;;;;2.40;1.63;;;17.50;73.00;;;;;;5085421;28;20040;-66
2022/06/08 01:00:24;;;;;;;1.70;1.48;;;17.50;73.00;;;;;;5090316;28;20055;-65
2022/06/08 01:02:50;;;;;;;2.28;1.92;;;17.50;73.20;;;;;;5086519;28;20384;-65
2022/06/08 01:05:35;;;;;;;3.22;2.10;;;17.50;73.30;;;;;;5094411;28;20028;-65
2022/06/08 01:08:31;;;;;;;5.10;2.00;;;17.50;73.30;;;;;;5077486;28;20106;-65
2022/06/08 01:10:59;;;;;;;2.42;1.88;;;17.50;73.60;;;;;;5081063;28;20016;-64
2022/06/08 01:13:28;;;;;;;2.13;1.70;;;17.50;73.80;;;;;;5088378;28;20024;-65
2022/06/08 01:15:54;;;;;;;2.33;1.75;;;17.50;73.80;;;;;;5088327;28;20027;-65
2022/06/08 01:18:21;;;;;;;3.13;2.00;;;17.60;74.00;;;;;;5089968;28;20465;-65
2022/06/08 01:20:54;;;;;;;1.63;1.40;;;17.60;74.20;;;;;;5076488;28;20032;-65
2022/06/08 01:23:20;;;;;;;2.05;1.75;;;17.70;74.30;;;;;;5072508;28;20021;-65
2022/06/08 01:26:16;;;;;;;4.43;1.77;;;17.70;74.30;;;;;;5079830;28;20020;-64
2022/06/08 01:29:14;;;;;;;2.10;1.90;;;17.80;74.40;;;;;;5099360;28;20060;-64
2022/06/08 01:31:50;;;;;;;1.95;1.80;;;17.80;74.40;;;;;;5079025;28;20023;-64
2022/06/08 01:34:34;;;;;;;1.60;1.50;;;17.80;74.50;;;;;;5082013;28;20028;-64
2022/06/08 01:37:17;;;;;;;3.60;1.80;;;17.80;74.50;;;;;;5085341;28;20036;-65
2022/06/08 01:40:00;;;;;;;;;;;17.90;74.60;;;;;;5093922;28;20035;-67
2022/06/08 01:42:44;;;;;;;2.47;2.05;;;17.90;74.70;;;;;;5073771;28;19915;-65
2022/06/08 01:45:33;;;;;;;2.72;2.30;;;17.90;74.80;;;;;;5093811;28;20450;-65
2022/06/08 01:48:16;;;;;;;4.45;2.80;;;17.90;75.00;;;;;;5088956;28;20032;-65
2022/06/08 01:51:11;;;;;;;2.95;2.30;;;17.90;75.00;;;;;;5092734;28;20107;-65
2022/06/08 01:54:14;;;;;;;3.80;2.42;;;17.90;75.10;;;;;;5088073;28;20051;-64
2022/06/08 01:56:49;;;;;;;;;;;18.00;75.30;;;;;;5089333;28;20024;-64
2022/06/08 01:59:36;;;;;;;2.53;2.15;;;17.90;75.40;;;;;;5080999;28;20011;-65
2022/06/08 02:02:05;;;;;;;3.45;2.20;;;17.90;75.40;;;;;;5078688;28;20395;-64
2022/06/08 02:04:56;;;;;;;2.65;1.67;;;17.90;75.40;;;;;;5086894;28;20395;-65
2022/06/08 02:07:42;;;;;;;3.60;2.50;;;18.00;76.00;;;;;;5070453;28;20029;-64
2022/06/08 02:10:26;;;;;;;3.15;2.00;;;18.00;75.50;;;;;;5071648;28;20502;-64
2022/06/08 02:12:58;;;;;;;3.30;1.95;;;18.00;75.60;;;;;;5084462;28;20498;-63
2022/06/08 02:15:30;;;;;;;2.25;1.77;;;18.00;75.60;;;;;;5079384;28;20020;-65
2022/06/08 02:17:59;;;;;;;3.40;2.38;;;18.00;75.60;;;;;;5080092;28;20544;-64
2022/06/08 02:20:56;;;;;;;2.60;2.30;;;18.00;75.70;;;;;;5073011;28;20491;-64
2022/06/08 02:23:27;;;;;;;2.63;2.10;;;18.10;75.70;;;;;;5082023;28;20073;-65
2022/06/08 02:26:01;;;;;;;3.27;2.60;;;18.00;75.70;;;;;;5077585;28;20025;-65
2022/06/08 02:28:32;;;;;;;4.43;2.60;;;18.10;75.90;;;;;;5094979;28;20433;-64
2022/06/08 02:31:22;;;;;;;3.85;2.08;;;18.10;76.00;;;;;;5079634;28;20112;-65
2022/06/08 02:36:52;;;;;;;2.65;2.33;;;18.10;76.10;;;;;;5079915;28;20058;-65
2022/06/08 02:39:28;;;;;;;3.30;2.70;;;18.00;76.20;;;;;;5078141;28;20028;-64
2022/06/08 02:41:58;;;;;;;3.83;2.90;;;18.00;76.20;;;;;;5076502;28;20020;-64
2022/06/08 02:44:30;;;;;;;2.17;1.98;;;17.90;76.10;;;;;;5069993;28;20044;-64
2022/06/08 02:47:09;;;;;;;3.17;2.13;;;17.90;76.10;;;;;;5081279;28;20020;-64
2022/06/08 02:49:36;;;;;;;2.83;2.60;;;17.90;76.00;;;;;;5070528;28;20041;-64
2022/06/08 02:52:08;;;;;;;5.07;2.67;;;17.80;76.00;;;;;;5073544;28;20040;-63
2022/06/08 02:54:34;;;;;;;3.93;2.77;;;17.80;75.90;;;;;;5070964;28;20040;-64
2022/06/08 02:57:08;;;;;;;2.72;2.33;;;17.80;75.90;;;;;;5086662;28;20032;-64
2022/06/08 02:59:51;;;;;;;4.18;2.80;;;17.70;75.90;;;;;;5069399;28;20495;-64
2022/06/08 03:02:20;;;;;;;7.18;3.65;;;17.70;76.10;;;;;;5071262;28;20032;-64
2022/06/08 03:05:01;;;;;;;3.92;2.60;;;17.60;76.20;;;;;;5071999;28;20017;-64
2022/06/08 03:07:32;;;;;;;3.00;2.70;;;17.60;76.30;;;;;;5083785;28;20499;-64
2022/06/08 03:10:03;;;;;;;3.55;2.70;;;17.50;76.30;;;;;;5081119;28;20062;-65
2022/06/08 03:12:38;;;;;;;3.33;2.53;;;17.50;76.30;;;;;;5070686;28;20487;-63
2022/06/08 03:15:07;;;;;;;3.75;2.67;;;17.40;76.30;;;;;;5095360;28;20112;-65
2022/06/08 03:17:35;;;;;;;3.33;2.67;;;17.40;76.20;;;;;;5086229;28;20449;-64
2022/06/08 03:20:03;;;;;;;4.45;2.65;;;17.40;76.20;;;;;;5077502;28;20040;-64
2022/06/08 03:22:29;;;;;;;4.00;2.70;;;17.40;76.20;;;;;;5075610;28;20021;-64
2022/06/08 03:24:55;;;;;;;3.78;2.58;;;17.40;76.10;;;;;;5066671;28;20024;-64
2022/06/08 03:27:20;;;;;;;9.40;3.42;;;17.30;76.00;;;;;;5085455;28;20095;-64
2022/06/08 03:29:46;;;;;;;3.13;2.72;;;17.30;76.00;;;;;;5082181;28;20049;-63
2022/06/08 03:32:12;;;;;;;3.88;3.30;;;17.30;76.00;;;;;;5085297;28;20393;-64
2022/06/08 03:34:38;;;;;;;3.60;2.35;;;17.30;76.00;;;;;;5068893;28;20031;-64
2022/06/08 03:37:05;;;;;;;3.95;2.78;;;17.30;75.90;;;;;;5074222;28;20256;-64
2022/06/08 03:39:31;;;;;;;4.15;3.03;;;17.30;75.90;;;;;;5085224;28;20028;-64
2022/06/08 03:41:56;;;;;;;3.85;2.70;;;17.20;76.60;;;;;;5072299;28;20093;-64
2022/06/08 03:44:22;;;;;;;3.67;2.28;;;17.20;76.00;;;;;;5081069;28;20147;-64
2022/06/08 03:46:58;;;;;;;6.00;3.60;;;17.20;76.10;;;;;;5075326;28;20012;-64
2022/06/08 03:49:25;;;;;;;3.75;2.95;;;17.20;76.10;;;;;;5082901;28;20024;-63
2022/06/08 03:51:54;;;;;;;4.03;3.22;;;17.20;76.30;;;;;;5074162;28;20048;-64
2022/06/08 03:54:23;;;;;;;4.03;2.90;;;17.20;76.30;;;;;;5092539;28;20020;-63
2022/06/08 03:56:54;;;;;;;2.92;2.55;;;17.30;76.40;;;;;;5075461;28;20027;-64
2022/06/08 03:59:20;;;;;;;4.33;3.20;;;17.30;77.00;;;;;;5081359;28;20527;-64
2022/06/08 04:01:46;;;;;;;6.43;3.92;;;17.30;76.50;;;;;;5071499;28;20044;-63
2022/06/08 04:04:12;;;;;;;4.13;3.47;;;17.30;76.50;;;;;;5080871;28;20035;-64
2022/06/08 04:06:38;;;;;;;4.15;2.83;;;17.40;77.30;;;;;;5068314;28;20032;-64
2022/06/08 04:09:04;;;;;;;5.53;3.70;;;17.40;76.70;;;;;;5071478;28;20025;-64
2022/06/08 04:11:30;;;;;;;6.68;4.47;;;17.50;76.80;;;;;;5082286;28;20020;-64
2022/06/08 04:13:58;;;;;;;5.78;4.13;;;17.50;76.80;;;;;;5084908;28;20028;-64
2022/06/08 04:16:23;;;;;;;5.45;4.15;;;17.60;76.90;;;;;;5072472;28;20059;-63
2022/06/08 04:18:49;;;;;;;4.45;3.13;;;17.60;76.90;;;;;;5073170;28;20490;-64
2022/06/08 04:21:15;;;;;;;6.43;4.28;;;17.60;76.90;;;;;;5080430;28;20101;-63
2022/06/08 04:24:00;;;;;;;7.05;3.78;;;17.70;77.10;;;;;;5076666;28;20032;-65
2022/06/08 04:26:27;;;;;;;6.05;4.13;;;17.70;76.90;;;;;;5079815;28;20023;-65
2022/06/08 04:28:53;;;;;;;5.95;4.05;;;17.70;76.90;;;;;;5085038;28;20453;-64
2022/06/08 04:31:20;;;;;;;5.43;4.07;;;17.70;77.00;;;;;;5085506;28;20028;-64
2022/06/08 04:33:46;;;;;;;5.07;3.92;;;17.70;77.00;;;;;;5086165;28;20035;-65
2022/06/08 04:36:13;;;;;;;9.88;4.80;;;17.70;77.00;;;;;;5081579;28;20035;-65
2022/06/08 04:38:39;;;;;;;6.88;4.72;;;17.70;77.10;;;;;;5078059;28;20036;-64
2022/06/08 04:41:05;;;;;;;8.23;5.95;;;17.70;77.30;;;;;;5077913;28;20113;-65
2022/06/08 04:43:31;;;;;;;8.23;5.15;;;17.70;77.40;;;;;;5077551;28;20031;-64
2022/06/08 04:45:57;;;;;;;5.53;4.20;;;17.80;77.40;;;;;;5099572;28;20020;-65
2022/06/08 04:48:23;;;;;;;9.77;5.80;;;17.90;77.40;;;;;;5081504;28;20526;-64
2022/06/08 04:50:49;;;;;;;6.35;4.93;;;17.90;77.50;;;;;;5096186;28;20019;-64
2022/06/08 04:53:15;;;;;;;7.30;5.45;;;18.00;77.50;;;;;;5087782;28;20024;-65
2022/06/08 04:55:41;;;;;;;6.00;4.07;;;18.00;77.60;;;;;;5093804;28;20020;-65
2022/06/08 04:58:07;;;;;;;7.10;4.88;;;18.10;77.60;;;;;;5096280;28;20080;-65
2022/06/08 05:00:33;;;;;;;7.13;5.18;;;18.10;77.70;;;;;;5089336;28;20575;-64
2022/06/08 05:02:59;;;;;;;7.20;5.35;;;18.20;77.70;;;;;;5088363;28;20099;-62
2022/06/08 05:05:30;;;;;;;7.63;5.22;;;18.20;77.70;;;;;;5079079;28;20048;-64
2022/06/08 05:07:57;;;;;;;8.40;5.70;;;18.30;77.80;;;;;;5079222;28;20664;-64
2022/06/08 05:10:25;;;;;;;8.02;4.45;;;18.40;77.80;;;;;;5093597;28;20368;-64
2022/06/08 05:12:51;;;;;;;9.48;4.43;;;18.40;77.80;;;;;;5076244;28;21460;-64
2022/06/08 05:15:21;;;;;;;8.77;4.53;;;18.40;77.80;;;;;;5083872;28;20075;-64
2022/06/08 05:17:47;;;;;;;7.45;5.63;;;18.40;77.90;;;;;;5084086;28;20056;-64
2022/06/08 05:20:14;;;;;;;8.23;5.57;;;18.40;77.90;;;;;;5083459;28;20513;-65
2022/06/08 05:22:44;;;;;;;7.68;4.50;;;18.50;77.80;;;;;;5082009;28;20035;-64
2022/06/08 05:25:13;;;;;;;6.72;4.72;;;18.50;77.90;;;;;;5051379;28;20077;-64
2022/06/08 05:27:39;;;;;;;5.20;4.07;;;18.60;77.70;;;;;;5080415;28;21023;-65
2022/06/08 05:30:06;;;;;;;6.15;3.80;;;18.70;77.70;;;;;;5082071;28;20043;-65
2022/06/08 05:32:32;;;;;;;5.93;4.97;;;18.70;77.60;;;;;;5084651;28;20190;-65
2022/06/08 05:34:58;;;;;;;4.78;3.72;;;18.80;77.60;;;;;;5083468;28;20107;-63
2022/06/08 05:37:23;;;;;;;5.82;4.82;;;18.80;77.60;;;;;;5086339;28;20032;-64
2022/06/08 05:39:49;;;;;;;3.83;3.38;;;18.90;77.80;;;;;;5076389;28;20058;-64
2022/06/08 05:42:15;;;;;;;3.95;3.42;;;18.90;77.70;;;;;;5082289;28;20027;-63
2022/06/08 05:44:41;;;;;;;3.88;3.53;;;18.90;77.50;;;;;;5075101;28;20036;-63
2022/06/08 05:47:06;;;;;;;5.90;3.92;;;18.90;77.50;;;;;;5070550;28;20064;-64
2022/06/08 05:49:33;;;;;;;4.93;3.85;;;19.00;77.60;;;;;;5082256;28;20101;-65
2022/06/08 05:51:59;;;;;;;4.53;3.45;;;19.00;77.50;;;;;;5091438;28;20600;-64
2022/06/08 05:54:25;;;;;;;5.68;4.00;;;19.10;77.40;;;;;;5089126;28;20076;-64
2022/06/08 05:56:51;;;;;;;5.18;3.45;;;19.10;77.50;;;;;;5082352;28;20040;-65
2022/06/08 05:59:17;;;;;;;3.63;3.33;;;19.10;77.60;;;;;;5076449;28;20028;-63
2022/06/08 06:01:42;;;;;;;4.40;3.10;;;19.10;77.70;;;;;;5077893;28;20407;-64
2022/06/08 06:04:09;;;;;;;4.30;3.60;;;19.20;77.60;;;;;;5071980;28;20024;-63
2022/06/08 06:06:34;;;;;;;5.13;4.03;;;19.20;77.60;;;;;;5083233;28;20114;-65
2022/06/08 06:09:02;;;;;;;4.82;3.42;;;19.20;77.60;;;;;;5074473;28;20488;-64
2022/06/08 06:11:28;;;;;;;3.45;2.53;;;19.30;77.50;;;;;;5091233;28;20164;-65
2022/06/08 06:13:54;;;;;;;4.03;2.97;;;19.40;77.50;;;;;;5090374;28;20531;-64
2022/06/08 06:16:19;;;;;;;6.20;3.20;;;19.40;77.30;;;;;;5098624;28;20028;-65
2022/06/08 06:18:45;;;;;;;3.53;2.53;;;19.40;77.30;;;;;;5090170;28;20025;-64
2022/06/08 06:21:25;;;;;;;4.15;2.63;;;19.50;77.20;;;;;;5082671;28;20040;-64
2022/06/08 06:23:59;;;;;;;2.78;2.55;;;19.60;77.20;;;;;;5080533;28;20068;-64
2022/06/08 06:26:25;;;;;;;5.78;3.33;;;19.60;77.10;;;;;;5085951;28;20056;-65
2022/06/08 06:28:51;;;;;;;2.92;2.45;;;19.60;77.00;;;;;;5078454;28;20037;-65
2022/06/08 06:31:29;;;;;;;3.38;2.90;;;19.60;77.00;;;;;;5090965;28;20028;-65
2022/06/08 06:33:55;;;;;;;4.25;3.03;;;19.70;77.10;;;;;;5075480;28;20020;-66
2022/06/08 06:36:21;;;;;;;3.95;2.45;;;19.70;77.00;;;;;;5079752;28;20090;-65
2022/06/08 06:38:47;;;;;;;5.55;2.78;;;19.70;76.90;;;;;;5071704;28;20032;-65
2022/06/08 06:41:16;;;;;;;2.90;2.40;;;19.80;76.80;;;;;;5071105;28;20476;-65
2022/06/08 06:43:42;;;;;;;3.03;2.40;;;19.90;76.70;;;;;;5090919;28;20051;-66
2022/06/08 06:46:11;;;;;;;2.53;2.33;;;20.00;76.40;;;;;;5084235;28;20263;-65
2022/06/08 06:48:38;;;;;;;3.55;2.25;;;20.00;76.20;;;;;;5081964;28;20021;-65
2022/06/08 06:51:04;;;;;;;2.63;2.03;;;20.10;76.00;;;;;;5069889;28;20040;-65
2022/06/08 06:53:30;;;;;;;3.25;2.63;;;20.10;75.90;;;;;;5076011;28;20508;-65
2022/06/08 06:55:56;;;;;;;1.85;1.67;;;20.10;75.80;;;;;;5084364;28;20112;-65
2022/06/08 06:58:22;;;;;;;3.63;2.08;;;20.10;75.70;;;;;;5080510;28;20396;-65
2022/06/08 07:00:49;;;;;;;2.35;1.70;;;20.10;75.70;;;;;;5075519;28;20044;-65
2022/06/08 07:03:14;;;;;;;2.00;1.75;;;20.10;75.40;;;;;;5089167;28;20459;-65
2022/06/08 07:05:40;;;;;;;1.60;1.50;;;20.10;75.50;;;;;;5094094;28;20415;-66
2022/06/08 07:08:06;;;;;;;2.63;1.85;;;20.10;75.50;;;;;;5077649;28;20368;-66
2022/06/08 07:10:33;;;;;;;2.42;1.77;;;20.20;75.50;;;;;;5076598;28;20120;-65
2022/06/08 07:12:59;;;;;;;1.75;1.25;;;20.20;75.30;;;;;;5073807;28;20467;-65
2022/06/08 07:15:26;;;;;;;1.55;1.10;;;20.30;75.20;;;;;;5081758;28;20039;-65
2022/06/08 07:17:52;;;;;;;3.08;1.77;;;20.30;75.10;;;;;;5078384;28;20033;-65
2022/06/08 07:20:21;;;;;;;4.07;2.08;;;20.40;75.00;;;;;;5073060;28;20534;-65
2022/06/08 07:22:48;;;;;;;2.83;1.40;;;20.50;74.80;;;;;;5084288;28;20578;-65
2022/06/08 07:25:14;;;;;;;1.80;1.55;;;20.50;74.60;;;;;;5082754;28;20031;-65
2022/06/08 07:27:41;;;;;;;2.03;1.65;;;20.60;74.50;;;;;;5090876;28;20072;-64
2022/06/08 07:30:08;;;;;;;1.92;1.73;;;20.60;74.30;;;;;;5083876;28;20028;-66
2022/06/08 07:32:35;;;;;;;1.92;1.70;;;20.60;74.40;;;;;;5081031;28;20030;-66
2022/06/08 07:35:02;;;;;;;0.98;0.98;;;20.60;74.40;;;;;;5080551;28;20542;-66
2022/06/08 07:37:29;;;;;;;2.58;1.35;;;20.60;74.50;;;;;;5094829;28;20038;-66
2022/06/08 07:39:55;;;;;;;1.30;1.20;;;20.60;74.10;;;;;;5092346;28;20059;-66
2022/06/08 07:42:21;;;;;;;3.42;1.67;;;20.60;74.00;;;;;;5079978;28;20438;-65
2022/06/08 07:44:47;;;;;;;1.05;0.95;;;20.60;73.90;;;;;;5076123;28;20055;-65
2022/06/08 07:47:13;;;;;;;2.25;1.92;;;20.50;73.70;;;;;;5078903;28;20036;-65
2022/06/08 07:49:41;;;;;;;2.00;1.23;;;20.60;73.80;;;;;;5094730;28;20039;-68
2022/06/08 07:52:10;;;;;;;1.25;1.10;;;20.60;73.70;;;;;;5089082;28;20045;-64
2022/06/08 07:54:37;;;;;;;2.50;1.92;;;20.70;74.10;;;;;;5067526;28;20032;-63
2022/06/08 07:57:05;;;;;;;1.30;1.13;;;20.80;73.50;;;;;;5074467;28;20135;-64
2022/06/08 07:59:34;;;;;;;1.38;1.27;;;20.80;73.30;;;;;;5075018;28;20033;-64
2022/06/08 08:02:01;;;;;;;1.63;1.50;;;20.80;73.10;;;;;;5076806;28;20028;-65
2022/06/08 08:04:27;;;;;;;0.82;0.82;;;20.90;72.90;;;;;;5082777;28;20481;-64
2022/06/08 08:06:53;;;;;;;1.42;1.33;;;21.00;72.80;;;;;;5086457;28;20043;-65
2022/06/08 08:09:20;;;;;;;3.78;1.13;;;21.00;72.80;;;;;;5082816;28;20024;-63
2022/06/08 08:11:49;;;;;;;2.63;1.13;;;21.10;72.70;;;;;;5084933;28;20107;-64
2022/06/08 08:14:15;;;;;;;1.42;1.00;;;21.20;72.50;;;;;;5084712;28;20032;-64
2022/06/08 08:16:43;;;;;;;1.70;1.20;;;21.20;72.10;;;;;;5073907;28;20028;-64
2022/06/08 08:19:14;;;;;;;1.50;1.40;;;21.20;71.50;;;;;;5071892;28;20110;-64
2022/06/08 08:21:39;;;;;;;2.08;1.33;;;21.30;71.50;;;;;;5082925;28;20036;-63
2022/06/08 08:24:06;;;;;;;1.75;0.95;;;21.40;71.40;;;;;;5073790;28;20043;-65
2022/06/08 08:26:32;;;;;;;1.10;1.00;;;21.30;71.30;;;;;;5078564;28;20494;-64
2022/06/08 08:28:58;;;;;;;1.08;1.00;;;21.40;71.30;;;;;;5074327;28;20024;-65
2022/06/08 08:31:25;;;;;;;0.98;0.90;;;21.50;71.30;;;;;;5076632;28;20096;-63
2022/06/08 08:33:50;;;;;;;2.15;0.90;;;21.50;71.40;;;;;;5078434;28;20123;-64
2022/06/08 08:36:17;;;;;;;1.27;1.10;;;21.60;71.40;;;;;;5078729;28;20103;-63
2022/06/08 08:38:44;;;;;;;1.42;1.20;;;21.80;71.10;;;;;;5083418;28;20371;-63
2022/06/08 08:43:59;;;;;;;1.13;1.02;;;22.20;70.30;;;;;;5082780;28;20044;-63
2022/06/08 08:46:28;;;;;;;0.63;0.63;;;22.40;70.10;;;;;;5076168;28;20020;-64
2022/06/08 08:49:05;;;;;;;0.80;0.77;;;22.60;69.90;;;;;;5076738;28;20024;-63
2022/06/08 08:51:32;;;;;;;1.98;1.45;;;22.80;69.40;;;;;;5073467;28;20028;-64
2022/06/08 08:54:27;;;;;;;0.93;0.93;;;23.00;68.30;;;;;;5075887;28;20066;-64
2022/06/08 08:56:58;;;;;;;0.85;0.85;;;23.10;67.90;;;;;;5072358;28;20115;-63
2022/06/08 08:59:28;;;;;;;2.38;1.58;;;23.10;67.00;;;;;;5078299;28;20096;-63
2022/06/08 09:01:55;;;;;;;2.03;1.38;;;23.00;67.20;;;;;;5078329;28;20039;-64
2022/06/08 09:04:24;;;;;;;1.65;1.00;;;23.10;66.40;;;;;;5082530;28;20029;-65
2022/06/08 09:06:50;;;;;;;0.70;0.70;;;23.10;66.70;;;;;;5072922;28;20050;-63
2022/06/08 09:09:33;;;;;;;1.08;0.95;;;23.10;67.00;;;;;;5083515;28;20028;-63
2022/06/08 09:11:59;;;;;;;2.72;1.27;;;23.10;66.30;;;;;;5081639;28;20040;-63
2022/06/08 09:14:43;;;;;;;1.17;1.08;;;23.00;66.20;;;;;;5075551;28;20483;-63
2022/06/08 09:17:15;;;;;;;1.95;1.17;;;23.00;66.40;;;;;;5079348;28;20021;-62
2022/06/08 09:19:51;;;;;;;3.35;0.82;;;22.90;66.80;;;;;;5076273;28;20020;-63
2022/06/08 09:22:29;;;;;;;0.80;0.70;;;23.00;67.00;;;;;;5089663;28;20161;-64
2022/06/08 09:25:03;;;;;;;1.20;1.00;;;23.00;66.90;;;;;;5086026;28;20119;-64
2022/06/08 09:27:35;;;;;;;3.35;1.45;;;23.10;66.60;;;;;;5079491;28;20425;-64
2022/06/08 09:30:10;;;;;;;1.40;1.15;;;23.20;66.20;;;;;;5073588;28;20047;-64
2022/06/08 09:32:44;;;;;;;2.17;1.35;;;23.00;65.50;;;;;;5071495;28;20028;-64
2022/06/08 09:35:28;;;;;;;1.20;1.10;;;22.90;65.60;;;;;;5081591;28;20043;-64
2022/06/08 09:37:58;;;;;;;1.80;1.00;;;22.80;65.60;;;;;;5077810;28;20020;-64
2022/06/08 09:40:36;;;;;;;1.17;1.08;;;22.70;66.20;;;;;;5083042;28;20082;-64
2022/06/08 09:43:29;;;;;;;5.93;1.48;;;22.70;66.40;;;;;;5071830;28;20021;-63
2022/06/08 09:45:58;;;;;;;1.08;0.80;;;22.70;65.90;;;;;;5079009;28;20020;-65
2022/06/08 09:52:05;;;;;;;2.17;1.58;;;22.70;66.20;;;;;;5080372;28;20106;-63
2022/06/08 09:54:46;;;;;;;1.13;1.02;;;22.80;65.70;;;;;;5077802;28;20038;-65
2022/06/08 09:57:15;;;;;;;2.05;1.30;;;22.70;65.40;;;;;;5079582;28;20542;-64
2022/06/08 09:59:57;;;;;;;7.63;1.20;;;22.60;64.60;;;;;;5078767;28;20491;-64
2022/06/08 10:02:34;;;;;;;;;;;22.40;65.20;;;;;;5094599;28;20394;-63
2022/06/08 10:05:11;;;;;;;1.80;1.05;;;22.30;65.80;;;;;;5070305;28;19908;-64
2022/06/08 10:07:51;;;;;;;1.20;1.05;;;22.10;66.40;;;;;;5069029;28;20039;-64
2022/06/08 10:10:29;;;;;;;1.58;1.27;;;22.00;66.70;;;;;;5090831;28;20572;-63
2022/06/08 10:12:58;;;;;;;1.42;1.00;;;21.90;67.00;;;;;;5078853;28;20028;-63
2022/06/08 10:15:44;;;;;;;1.40;1.00;;;21.90;67.10;;;;;;5076058;28;20101;-64
2022/06/08 10:18:40;;;;;;;1.75;1.00;;;22.00;67.10;;;;;;5078555;28;20123;-64
2022/06/08 10:21:16;;;;;;;1.63;0.90;;;22.00;67.10;;;;;;5067822;28;20115;-64
2022/06/08 10:24:03;;;;;;;2.70;1.02;;;22.00;66.60;;;;;;5074227;28;20031;-63
2022/06/08 10:26:36;;;;;;;1.30;1.20;;;21.90;66.80;;;;;;5081156;28;20498;-63
2022/06/08 10:29:17;;;;;;;2.47;0.93;;;21.90;66.90;;;;;;5084336;28;20360;-64
2022/06/08 10:31:54;;;;;;;0.80;0.80;;;21.90;66.90;;;;;;5086539;28;20389;-64
2022/06/08 10:34:24;;;;;;;0.93;0.80;;;21.90;67.00;;;;;;5085538;28;20028;-65
2022/06/08 10:37:04;;;;;;;1.13;1.10;;;21.90;67.20;;;;;;5076583;28;20391;-65
2022/06/08 10:39:30;;;;;;;1.17;1.08;;;21.90;67.20;;;;;;5077249;28;20060;-63
2022/06/08 10:44:59;;;;;;;0.60;0.60;;;22.00;67.10;;;;;;5089949;28;20066;-64
2022/06/08 10:47:31;;;;;;;2.25;1.08;;;22.10;66.90;;;;;;5075829;28;20463;-64
2022/06/08 10:50:22;;;;;;;2.90;0.90;;;22.10;66.70;;;;;;5084666;28;20036;-64
2022/06/08 10:52:49;;;;;;;1.30;1.15;;;22.20;66.30;;;;;;5077053;28;20024;-65
2022/06/08 10:55:16;;;;;;;3.40;1.67;;;22.20;65.50;;;;;;5085828;28;20398;-64
2022/06/08 10:57:51;;;;;;;0.90;0.90;;;22.10;65.50;;;;;;5077106;28;20105;-64
2022/06/08 11:00:20;;;;;;;1.23;1.00;;;22.00;65.80;;;;;;5071508;28;20032;-64
2022/06/08 11:02:55;;;;;;;1.65;0.90;;;21.90;65.70;;;;;;5076606;28;20063;-64
2022/06/08 11:05:39;;;;;;;1.33;1.23;;;21.90;65.80;;;;;;5082758;28;20103;-64
2022/06/08 11:08:07;;;;;;;4.93;1.27;;;21.80;64.90;;;;;;5083630;28;20771;-64
2022/06/08 11:10:52;;;;;;;4.70;0.73;;;21.50;65.40;;;;;;5080847;28;20128;-64
2022/06/08 11:13:29;;;;;;;3.17;1.20;;;21.30;66.30;;;;;;5077548;28;20036;-63
2022/06/08 11:16:06;;;;;;;0.82;0.70;;;21.20;67.10;;;;;;5079300;28;20113;-63
2022/06/08 11:18:51;;;;;;;2.75;1.15;;;21.00;67.60;;;;;;5075187;28;20038;-63
2022/06/08 11:21:38;;;;;;;1.05;0.77;;;21.00;68.60;;;;;;5070234;28;20067;-63
2022/06/08 11:24:24;;;;;;;8.05;1.25;;;20.80;69.10;;;;;;5078966;28;20024;-66
2022/06/08 11:27:12;;;;;;;3.22;1.25;;;20.80;69.50;;;;;;5077957;28;20506;-62
2022/06/08 11:29:53;;;;;;;3.13;0.65;;;20.80;69.60;;;;;;5077932;28;20143;-64
2022/06/08 11:32:39;;;;;;;3.73;0.90;;;20.90;70.10;;;;;;5088654;28;20023;-63
2022/06/08 11:35:23;;;;;;;1.38;0.70;;;21.00;70.00;;;;;;5089019;28;20025;-63
2022/06/08 11:38:06;;;;;;;1.73;0.88;;;21.10;69.70;;;;;;5079992;28;20107;-64
2022/06/08 11:40:35;;;;;;;1.63;0.98;;;21.30;69.30;;;;;;5079677;28;20070;-64
2022/06/08 11:43:19;;;;;;;2.25;1.23;;;21.40;69.10;;;;;;5086653;28;20114;-65
2022/06/08 11:45:53;;;;;;;1.05;0.75;;;21.40;68.90;;;;;;5077534;28;20090;-63
2022/06/08 11:48:22;;;;;;;0.57;0.57;;;21.40;69.10;;;;;;5074201;28;20140;-64
2022/06/08 11:50:54;;;;;;;0.95;0.73;;;21.30;68.80;;;;;;5076028;28;20023;-64
2022/06/08 11:53:37;;;;;;;2.28;0.70;;;21.30;69.00;;;;;;5078057;28;20028;-64
2022/06/08 11:56:05;;;;;;;0.45;0.45;;;21.20;68.20;;;;;;5071520;28;20048;-64
2022/06/08 11:58:34;;;;;;;1.17;0.90;;;21.00;68.30;;;;;;5081031;28;20066;-64
2022/06/08 12:01:16;;;;;;;3.83;0.93;;;20.90;68.30;;;;;;5073893;28;20044;-64
2022/06/08 12:03:50;;;;;;;0.83;0.73;;;20.80;68.90;;;;;;5084865;28;20032;-65
2022/06/08 12:06:24;;;;;;;1.95;1.00;;;20.60;69.30;;;;;;5081525;28;20367;-64
2022/06/08 12:08:57;;;;;;;2.60;0.73;;;20.50;69.60;;;;;;5073648;28;20058;-64
2022/06/08 12:11:24;;;;;;;;;;;20.40;69.80;;;;;;5084630;28;20115;-64
2022/06/08 12:14:02;;;;;;;1.48;0.65;;;20.40;70.30;;;;;;5079994;28;19908;-63
2022/06/08 12:16:35;;;;;;;1.50;0.75;;;20.20;70.60;;;;;;5075759;28;20664;-64
2022/06/08 12:19:04;;;;;;;1.10;0.65;;;20.20;71.10;;;;;;5079166;28;20093;-64
2022/06/08 12:21:39;;;;;;;1.00;0.90;;;20.10;71.40;;;;;;5084919;28;20032;-63
2022/06/08 12:24:21;;;;;;;0.88;0.60;;;20.10;71.60;;;;;;5081064;28;20028;-64
2022/06/08 12:26:50;;;;;;;0.60;0.60;;;20.10;71.70;;;;;;5070119;28;20159;-64
2022/06/08 12:29:21;;;;;;;1.83;0.80;;;20.10;71.70;;;;;;5090446;28;20031;-64
2022/06/08 12:32:06;;;;;;;0.98;0.88;;;20.20;71.80;;;;;;5080661;28;20021;-64
2022/06/08 12:34:38;;;;;;;0.90;0.60;;;20.20;72.30;;;;;;5083436;28;20039;-65
2022/06/08 12:37:45;;;;;;;1.08;0.98;;;20.20;72.20;;;;;;5081249;28;20025;-65
2022/06/08 12:40:17;;;;;;;0.90;0.70;;;20.20;72.20;;;;;;5017587;28;20414;-65
2022/06/08 12:42:50;;;;;;;1.02;0.70;;;20.20;72.40;;;;;;5012340;28;20571;-65
2022/06/08 12:45:33;;;;;;;0.68;0.68;;;20.30;73.10;;;;;;5043418;28;20044;-65
2022/06/08 12:48:33;;;;;;;4.60;1.27;;;20.30;72.60;;;;;;5083305;28;20012;-64
2022/06/08 12:51:02;;;;;;;0.50;0.50;;;20.40;73.00;;;;;;5087341;28;20055;-65
2022/06/08 12:53:29;;;;;;;3.85;1.23;;;20.30;72.70;;;;;;5086371;28;20467;-62
2022/06/08 12:55:55;;;;;;;2.28;0.80;;;20.30;72.90;;;;;;5078214;28;20111;-63
2022/06/08 12:58:23;;;;;;;11.23;0.70;;;20.20;73.40;;;;;;5089218;28;20134;-63
2022/06/08 13:00:52;;;;;;;3.20;0.50;;;20.10;73.40;;;;;;5083254;28;20507;-63
2022/06/08 13:03:36;;;;;;;1.17;0.98;;;20.10;73.80;;;;;;5089328;28;20056;-62
2022/06/08 13:06:01;;;;;;;1.02;0.60;;;20.10;74.20;;;;;;5069254;28;20439;-64
2022/06/08 13:08:28;;;;;;;0.95;0.73;;;20.10;74.30;;;;;;5084208;28;20036;-63
2022/06/08 13:10:59;;;;;;;5.38;0.85;;;20.10;74.00;;;;;;5085298;28;20031;-63
2022/06/08 13:13:29;;;;;;;0.43;0.43;;;20.20;74.50;;;;;;5077837;28;20112;-63
2022/06/08 13:15:57;;;;;;;2.95;0.80;;;20.10;74.50;;;;;;5080982;28;20459;-63
2022/06/08 13:18:26;;;;;;;1.10;1.00;;;20.10;74.50;;;;;;5081269;28;20028;-63
2022/06/08 13:20:53;;;;;;;1.70;0.82;;;20.10;74.80;;;;;;5084469;28;20081;-63
2022/06/08 13:23:20;;;;;;;2.42;0.90;;;20.00;74.90;;;;;;5087490;28;20048;-63